Accueil
METAR-TAF:

METAR-TAF

Aéroports :

Aéroport de Bruxelles. Zaventem

Bruxelles, Belgique

latitude: 50-54N, longitude: 004-32E, altitude: 55 m

Observation

Le bulletin a été fait il y a 29 minutes, à 18:50 UTC
Vent 5 kt de nord-est
Température 21°C
Humidité 69%
Pression 1018 hPa
Visibilité 10 km ou plus
pas de nuages en-dessous de 1500 mètres et pas de cumulonimbus.

METAR: EBBR 151850Z 04005KT CAVOK 21/15 Q1018 NOSIG

Heure: 21:19 (19:19 UTC)

Prévision

Le bulletin a été fait il y a 2 heures et 17 minutes, à 17:02 UTC
Prévision valable du 15 à 18 UTC au 16 à 24 UTC
Vent 5 kt de est/nord-est
Visibilité 10 km ou plus
Quelques nuages à une hauteur de 4500 ft

TAF: EBBR 151702Z 1518/1624 06005KT 9999 FEW045

Observations et prévisions météorologiques de plus de 4000 aéroports (messages METAR et TAF).

Les stations disponibles sont représentées par des disques jaunes et rouges sur la carte.

Passer la souris dessus pour voir le nom de la station.

Cliquer dessus pour voir les observations et prévisions météorologiques.

Pour changer de carte: cliquez sur les boutons verts avec une croix noire pour zoomer, sur le bouton vert avec un tiret pour effectuer un zoom arrière, ou sur les flèches vertes pour les cartes adjacentes.


METAR-TAF: